Time;durP1;ratioP1;P1;durP2;ratioP2;P2;SDS_P1;SDS_P2;PMS_P1;PMS_P2;Temp;Humidity;BMP_temperature;BMP_pressure;BME280_temperature;BME280_humidity;BME280_pressure;Samples;Min_cycle;Max_cycle;Signal;HPM_P1;HPM_P2
2021/12/09 00:00:26;;;;;;;13.27;10.27;;;;;;;;;;5071742;28;20560;-56
2021/12/09 00:02:52;;;;;;;14.57;10.47;;;;;;;;;;5071744;28;20517;-55
2021/12/09 00:05:22;;;;;;;11.70;9.60;;;;;;;;;;5071409;28;20544;-55
2021/12/09 00:07:51;;;;;;;11.07;9.60;;;;;;;;;;5071600;28;20303;-56
2021/12/09 00:10:18;;;;;;;12.47;9.70;;;;;;;;;;5071398;28;20459;-56
2021/12/09 00:12:44;;;;;;;13.30;9.60;;;;;;;;;;5071430;28;21034;-56
2021/12/09 00:15:10;;;;;;;13.87;10.77;;;;;;;;;;5071461;28;20470;-56
2021/12/09 00:17:36;;;;;;;13.00;10.00;;;;;;;;;;5071586;28;20444;-55
2021/12/09 00:20:02;;;;;;;13.70;10.23;;;;;;;;;;5071461;28;20810;-56
2021/12/09 00:22:29;;;;;;;14.87;10.70;;;;;;;;;;5071652;28;20512;-57
2021/12/09 00:24:55;;;;;;;14.23;10.67;;;;;;;;;;5071184;28;20449;-56
2021/12/09 00:27:21;;;;;;;13.80;11.20;;;;;;;;;;5071560;28;20452;-55
2021/12/09 00:29:47;;;;;;;13.93;10.43;;;;;;;;;;5071407;28;20464;-56
2021/12/09 00:32:13;;;;;;;15.23;12.10;;;;;;;;;;5066763;28;20539;-56
2021/12/09 00:34:42;;;;;;;15.43;10.73;;;;;;;;;;5071230;28;20429;-57
2021/12/09 00:37:19;;;;;;;13.40;10.47;;;;;;;;;;5071209;28;20530;-57
2021/12/09 00:39:49;;;;;;;14.93;10.73;;;;;;;;;;5071535;28;20440;-57
2021/12/09 00:42:15;;;;;;;13.30;10.60;;;;;;;;;;5071277;28;20529;-57
2021/12/09 00:44:41;;;;;;;13.90;10.60;;;;;;;;;;5071114;28;20537;-58
2021/12/09 00:47:07;;;;;;;11.70;9.53;;;;;;;;;;5070950;28;20199;-57
2021/12/09 00:49:33;;;;;;;13.00;10.73;;;;;;;;;;5071238;28;20205;-57
2021/12/09 00:51:59;;;;;;;12.90;10.03;;;;;;;;;;5070974;28;20560;-58
2021/12/09 00:54:25;;;;;;;12.97;10.70;;;;;;;;;;5071041;28;20270;-59
2021/12/09 00:56:53;;;;;;;14.20;10.97;;;;;;;;;;5071247;28;20499;-58
2021/12/09 00:59:19;;;;;;;14.10;10.67;;;;;;;;;;5070949;28;20851;-59
2021/12/09 01:01:45;;;;;;;11.80;10.07;;;;;;;;;;5070906;28;20501;-58
2021/12/09 01:04:11;;;;;;;14.77;10.70;;;;;;;;;;5073631;28;20429;-58
2021/12/09 01:06:37;;;;;;;15.97;10.27;;;;;;;;;;5074599;28;20461;-58
2021/12/09 01:09:03;;;;;;;14.23;10.13;;;;;;;;;;5074548;28;20434;-57
2021/12/09 01:11:29;;;;;;;12.13;9.63;;;;;;;;;;5074495;28;20555;-58
2021/12/09 01:13:57;;;;;;;13.87;10.83;;;;;;;;;;5074434;28;20274;-58
2021/12/09 01:16:23;;;;;;;14.73;10.87;;;;;;;;;;5074493;28;20453;-58
2021/12/09 01:18:49;;;;;;;14.97;11.67;;;;;;;;;;5074362;28;20833;-58
2021/12/09 01:21:15;;;;;;;12.03;10.40;;;;;;;;;;5074134;28;20856;-59
2021/12/09 01:23:41;;;;;;;13.10;10.50;;;;;;;;;;5074259;28;20480;-58
2021/12/09 01:26:07;;;;;;;13.53;10.47;;;;;;;;;;5074042;28;20437;-58
2021/12/09 01:28:43;;;;;;;12.90;11.20;;;;;;;;;;5074334;28;20437;-57
2021/12/09 01:31:11;;;;;;;12.87;10.57;;;;;;;;;;5074204;28;20849;-57
2021/12/09 01:33:37;;;;;;;13.37;10.90;;;;;;;;;;5074080;28;20437;-58
2021/12/09 01:36:04;;;;;;;13.47;10.43;;;;;;;;;;5073934;28;20442;-58
2021/12/09 01:38:32;;;;;;;12.87;10.43;;;;;;;;;;5074037;28;21018;-57
2021/12/09 01:40:59;;;;;;;14.67;11.00;;;;;;;;;;5074053;28;20434;-58
2021/12/09 01:43:25;;;;;;;12.53;10.70;;;;;;;;;;5073908;28;20948;-57
2021/12/09 01:46:01;;;;;;;12.37;10.80;;;;;;;;;;5073938;28;20434;-59
2021/12/09 01:48:28;;;;;;;15.13;11.27;;;;;;;;;;5073898;28;20990;-58
2021/12/09 01:50:54;;;;;;;12.57;10.43;;;;;;;;;;5073608;28;20452;-58
2021/12/09 01:53:20;;;;;;;15.87;11.40;;;;;;;;;;5073751;28;20481;-59
2021/12/09 01:55:46;;;;;;;15.67;12.07;;;;;;;;;;5073907;28;20205;-58
2021/12/09 01:58:12;;;;;;;17.20;11.97;;;;;;;;;;5073635;28;20203;-58
2021/12/09 02:00:38;;;;;;;13.07;11.67;;;;;;;;;;5073416;28;20722;-58
2021/12/09 02:03:05;;;;;;;16.00;11.87;;;;;;;;;;5073405;28;20227;-58
2021/12/09 02:05:33;;;;;;;18.17;12.33;;;;;;;;;;5073579;28;20216;-58
2021/12/09 02:07:59;;;;;;;13.93;10.97;;;;;;;;;;5073526;28;20446;-58
2021/12/09 02:10:26;;;;;;;15.07;12.07;;;;;;;;;;5073279;28;20429;-57
2021/12/09 02:12:52;;;;;;;16.90;11.80;;;;;;;;;;5073293;28;20535;-59
2021/12/09 02:15:20;;;;;;;16.93;12.10;;;;;;;;;;5072260;28;20433;-58
2021/12/09 02:17:47;;;;;;;18.10;11.77;;;;;;;;;;5073640;28;20834;-57
2021/12/09 02:20:13;;;;;;;13.73;11.27;;;;;;;;;;5073191;28;20445;-58
2021/12/09 02:22:46;;;;;;;16.63;12.13;;;;;;;;;;5073155;28;20437;-57
2021/12/09 02:25:12;;;;;;;14.93;11.80;;;;;;;;;;5073163;28;20511;-58
2021/12/09 02:27:38;;;;;;;15.13;11.73;;;;;;;;;;5073078;28;20442;-58
2021/12/09 02:30:05;;;;;;;16.87;11.90;;;;;;;;;;5054967;28;20499;-57
2021/12/09 02:32:31;;;;;;;16.53;12.70;;;;;;;;;;5073052;28;20277;-58
2021/12/09 02:34:57;;;;;;;15.90;12.87;;;;;;;;;;5072817;28;20438;-58
2021/12/09 02:37:23;;;;;;;15.23;12.57;;;;;;;;;;5072793;28;20239;-58
2021/12/09 02:39:50;;;;;;;18.43;12.63;;;;;;;;;;5072834;28;20199;-58
2021/12/09 02:42:16;;;;;;;16.47;12.97;;;;;;;;;;5072601;28;20232;-58
2021/12/09 02:44:44;;;;;;;17.03;12.80;;;;;;;;;;5072787;28;20487;-58
2021/12/09 02:47:11;;;;;;;18.70;13.90;;;;;;;;;;5072615;28;20460;-58
2021/12/09 02:49:37;;;;;;;18.07;14.20;;;;;;;;;;5072664;28;20445;-58
2021/12/09 02:52:04;;;;;;;19.57;14.77;;;;;;;;;;5072565;28;20519;-59
2021/12/09 02:54:30;;;;;;;19.50;14.77;;;;;;;;;;5072662;28;20824;-58
2021/12/09 02:56:59;;;;;;;20.50;14.87;;;;;;;;;;5072470;28;20434;-59
2021/12/09 02:59:25;;;;;;;20.40;15.27;;;;;;;;;;5072498;28;20533;-58
2021/12/09 03:01:59;;;;;;;21.77;15.80;;;;;;;;;;5072208;28;20504;-58
2021/12/09 03:04:26;;;;;;;20.50;15.90;;;;;;;;;;5072082;28;20950;-57
2021/12/09 03:06:54;;;;;;;22.37;16.33;;;;;;;;;;5072254;28;20438;-58
2021/12/09 03:09:21;;;;;;;24.33;15.93;;;;;;;;;;5072190;28;20805;-58
2021/12/09 03:11:53;;;;;;;19.17;15.33;;;;;;;;;;5072138;28;20470;-58
2021/12/09 03:14:21;;;;;;;24.70;17.27;;;;;;;;;;5072079;28;20430;-58
2021/12/09 03:16:47;;;;;;;21.70;16.83;;;;;;;;;;5072314;28;20444;-57
2021/12/09 03:19:13;;;;;;;25.93;17.90;;;;;;;;;;5072099;28;20491;-58
2021/12/09 03:21:41;;;;;;;21.03;16.17;;;;;;;;;;5071876;28;20434;-58
2021/12/09 03:24:09;;;;;;;24.27;16.53;;;;;;;;;;5071853;28;21105;-58
2021/12/09 03:26:36;;;;;;;24.47;17.10;;;;;;;;;;5071777;28;20437;-57
2021/12/09 03:29:05;;;;;;;22.83;17.33;;;;;;;;;;5072137;28;20444;-56
2021/12/09 03:31:32;;;;;;;26.40;17.60;;;;;;;;;;5071960;28;20564;-58
2021/12/09 03:33:59;;;;;;;22.20;17.63;;;;;;;;;;5071963;28;20496;-58
2021/12/09 03:36:28;;;;;;;25.00;18.03;;;;;;;;;;5071748;28;20833;-57
2021/12/09 03:38:54;;;;;;;24.40;18.73;;;;;;;;;;5071835;28;20958;-57
2021/12/09 03:41:20;;;;;;;24.30;18.10;;;;;;;;;;5071710;28;20442;-59
2021/12/09 03:43:46;;;;;;;23.37;18.30;;;;;;;;;;5072022;28;20445;-58
2021/12/09 03:46:12;;;;;;;28.10;18.43;;;;;;;;;;5071777;28;20437;-58
2021/12/09 03:48:39;;;;;;;25.97;19.50;;;;;;;;;;5071779;28;20501;-58
2021/12/09 03:51:05;;;;;;;24.23;17.67;;;;;;;;;;5071876;28;20864;-58
2021/12/09 03:53:31;;;;;;;26.00;18.33;;;;;;;;;;5072237;28;21077;-58
2021/12/09 03:55:57;;;;;;;23.33;17.93;;;;;;;;;;5071826;28;20477;-58
2021/12/09 03:58:24;;;;;;;27.57;19.47;;;;;;;;;;5071654;28;20426;-61
2021/12/09 04:00:50;;;;;;;26.63;18.90;;;;;;;;;;5071908;28;20489;-58
2021/12/09 04:03:17;;;;;;;29.53;20.43;;;;;;;;;;5071681;28;20943;-61
2021/12/09 04:05:45;;;;;;;29.43;20.40;;;;;;;;;;5071736;28;20467;-59
2021/12/09 04:08:11;;;;;;;29.57;20.23;;;;;;;;;;5071646;28;20541;-59
2021/12/09 04:10:37;;;;;;;28.03;18.47;;;;;;;;;;5071700;28;20436;-58
2021/12/09 04:13:03;;;;;;;24.63;18.97;;;;;;;;;;5071530;28;20516;-58
2021/12/09 04:15:29;;;;;;;25.23;19.03;;;;;;;;;;5071472;28;20445;-58
2021/12/09 04:17:55;;;;;;;28.93;20.17;;;;;;;;;;5071458;28;20430;-57
2021/12/09 04:20:22;;;;;;;29.80;19.97;;;;;;;;;;5071255;28;20434;-57
2021/12/09 04:22:49;;;;;;;29.13;19.40;;;;;;;;;;5071449;28;20488;-60
2021/12/09 04:25:16;;;;;;;27.40;20.07;;;;;;;;;;5071441;28;20429;-57
2021/12/09 04:27:42;;;;;;;27.90;20.90;;;;;;;;;;5071488;28;20529;-59
2021/12/09 04:30:08;;;;;;;27.40;21.00;;;;;;;;;;5071365;28;20903;-59
2021/12/09 04:32:34;;;;;;;32.00;21.70;;;;;;;;;;5071233;28;20233;-59
2021/12/09 04:35:00;;;;;;;28.80;20.73;;;;;;;;;;5071266;28;20430;-58
2021/12/09 04:37:26;;;;;;;28.90;21.90;;;;;;;;;;5071418;28;20442;-58
2021/12/09 04:39:54;;;;;;;30.63;22.17;;;;;;;;;;5075153;28;20487;-58
2021/12/09 04:42:20;;;;;;;32.43;22.33;;;;;;;;;;5075054;28;20265;-57
2021/12/09 04:44:46;;;;;;;33.90;22.93;;;;;;;;;;5075184;28;20426;-59
2021/12/09 04:47:12;;;;;;;34.60;23.67;;;;;;;;;;5075151;28;20429;-58
2021/12/09 04:49:38;;;;;;;35.50;23.37;;;;;;;;;;5074881;28;20487;-58
2021/12/09 04:52:07;;;;;;;37.57;23.27;;;;;;;;;;5074909;28;20845;-58
2021/12/09 04:54:36;;;;;;;39.03;26.00;;;;;;;;;;5074977;28;20486;-57
2021/12/09 04:57:03;;;;;;;40.73;26.13;;;;;;;;;;5074942;28;20767;-57
2021/12/09 04:59:29;;;;;;;39.17;25.97;;;;;;;;;;5074700;28;20495;-58
2021/12/09 05:01:55;;;;;;;40.23;25.23;;;;;;;;;;5074438;28;21054;-58
2021/12/09 05:04:21;;;;;;;45.50;27.93;;;;;;;;;;5074404;28;20434;-57
2021/12/09 05:06:48;;;;;;;42.17;27.30;;;;;;;;;;5074673;28;20445;-59
2021/12/09 05:09:17;;;;;;;45.77;27.43;;;;;;;;;;5074563;28;20445;-59
2021/12/09 05:14:14;;;;;;;42.63;27.50;;;;;;;;;;5074242;28;20471;-59
2021/12/09 05:16:40;;;;;;;45.60;27.00;;;;;;;;;;5074271;28;20460;-58
2021/12/09 05:19:06;;;;;;;45.53;27.37;;;;;;;;;;5074260;28;20461;-58
2021/12/09 05:21:37;;;;;;;44.37;28.83;;;;;;;;;;5074382;28;20465;-58
2021/12/09 05:24:03;;;;;;;41.70;26.27;;;;;;;;;;5074405;28;20245;-58
2021/12/09 05:26:35;;;;;;;47.40;29.40;;;;;;;;;;5074312;28;20433;-59
2021/12/09 05:29:01;;;;;;;40.13;26.80;;;;;;;;;;5074345;28;20955;-58
2021/12/09 05:34:15;;;;;;;46.97;27.30;;;;;;;;;;5074011;28;20515;-58
2021/12/09 05:36:41;;;;;;;48.40;28.57;;;;;;;;;;5074111;28;20434;-59
2021/12/09 05:39:08;;;;;;;46.20;28.00;;;;;;;;;;5073940;28;21063;-58
2021/12/09 05:41:34;;;;;;;44.17;27.70;;;;;;;;;;5073885;28;20428;-58
2021/12/09 05:44:00;;;;;;;48.47;30.00;;;;;;;;;;5074036;28;20435;-58
2021/12/09 05:46:28;;;;;;;46.83;28.33;;;;;;;;;;5073731;28;20928;-59
2021/12/09 05:48:55;;;;;;;46.00;28.97;;;;;;;;;;5073334;28;21009;-59
2021/12/09 05:51:22;;;;;;;53.33;28.93;;;;;;;;;;5073536;28;20430;-58
2021/12/09 05:53:49;;;;;;;47.47;27.73;;;;;;;;;;5073839;28;20437;-58
2021/12/09 05:56:15;;;;;;;50.37;29.17;;;;;;;;;;5073677;28;20434;-60
2021/12/09 05:58:41;;;;;;;54.10;29.83;;;;;;;;;;5073610;28;21014;-58
2021/12/09 06:01:07;;;;;;;47.13;28.43;;;;;;;;;;5073338;28;20475;-58
2021/12/09 06:03:34;;;;;;;47.87;28.73;;;;;;;;;;5073335;28;20422;-58
2021/12/09 06:06:00;;;;;;;47.77;28.60;;;;;;;;;;5073512;28;20826;-58
2021/12/09 06:08:27;;;;;;;49.97;29.63;;;;;;;;;;5073138;28;20445;-58
2021/12/09 06:10:54;;;;;;;50.80;30.13;;;;;;;;;;5073336;28;20932;-58
2021/12/09 06:13:25;;;;;;;49.70;29.23;;;;;;;;;;5072915;28;20984;-58
2021/12/09 06:15:51;;;;;;;55.33;30.70;;;;;;;;;;5073184;28;20805;-58
2021/12/09 06:18:17;;;;;;;55.77;31.73;;;;;;;;;;5073004;28;20434;-57
2021/12/09 06:20:45;;;;;;;51.83;29.80;;;;;;;;;;5072885;28;20492;-57
2021/12/09 06:23:11;;;;;;;55.63;30.40;;;;;;;;;;5072804;28;20203;-58
2021/12/09 06:25:37;;;;;;;50.77;29.53;;;;;;;;;;5072640;28;20460;-58
2021/12/09 06:28:03;;;;;;;54.73;30.07;;;;;;;;;;5072971;28;20445;-57
2021/12/09 06:30:29;;;;;;;55.23;30.33;;;;;;;;;;5072943;28;20204;-58
2021/12/09 06:32:55;;;;;;;52.47;30.33;;;;;;;;;;5072684;28;21052;-59
2021/12/09 06:35:22;;;;;;;56.03;31.93;;;;;;;;;;5072731;28;20434;-58
2021/12/09 06:37:49;;;;;;;55.70;30.97;;;;;;;;;;5072736;28;20441;-58
2021/12/09 06:40:17;;;;;;;55.40;30.97;;;;;;;;;;5072430;28;20990;-58
2021/12/09 06:42:43;;;;;;;54.30;30.80;;;;;;;;;;5072886;28;20477;-58
2021/12/09 06:45:10;;;;;;;53.90;31.07;;;;;;;;;;5072596;28;20438;-58
2021/12/09 06:47:36;;;;;;;60.30;31.47;;;;;;;;;;5072340;28;20481;-58
2021/12/09 06:50:04;;;;;;;54.57;30.60;;;;;;;;;;5072299;28;20818;-57
2021/12/09 06:52:30;;;;;;;55.17;31.80;;;;;;;;;;5072477;28;20497;-57
2021/12/09 06:54:57;;;;;;;55.77;31.13;;;;;;;;;;5054466;28;20440;-57
2021/12/09 06:57:23;;;;;;;54.43;30.23;;;;;;;;;;5072417;28;20434;-58
2021/12/09 06:59:49;;;;;;;57.03;31.13;;;;;;;;;;5072130;28;20788;-58
2021/12/09 07:02:15;;;;;;;65.70;31.37;;;;;;;;;;5071992;28;20188;-57
2021/12/09 07:04:41;;;;;;;56.27;30.70;;;;;;;;;;5072149;28;20220;-58
2021/12/09 07:07:07;;;;;;;56.03;31.50;;;;;;;;;;5072375;28;20460;-58
2021/12/09 07:09:33;;;;;;;57.77;31.80;;;;;;;;;;5072081;28;20454;-57
2021/12/09 07:12:01;;;;;;;63.10;32.47;;;;;;;;;;5072281;28;20473;-57
2021/12/09 07:14:27;;;;;;;59.40;31.77;;;;;;;;;;5072082;28;20434;-57
2021/12/09 07:16:53;;;;;;;53.53;31.87;;;;;;;;;;5072090;28;20852;-57
2021/12/09 07:19:19;;;;;;;65.87;32.60;;;;;;;;;;5071933;28;20429;-57
2021/12/09 07:21:45;;;;;;;59.83;34.03;;;;;;;;;;5070410;28;20223;-57
2021/12/09 07:24:11;;;;;;;58.70;31.80;;;;;;;;;;5071969;28;20422;-57
2021/12/09 07:26:37;;;;;;;61.13;30.40;;;;;;;;;;5071857;28;20535;-57
2021/12/09 07:29:04;;;;;;;55.37;30.67;;;;;;;;;;5071912;28;20654;-57
2021/12/09 07:31:30;;;;;;;57.87;30.73;;;;;;;;;;5072023;28;20449;-57
2021/12/09 07:33:57;;;;;;;51.77;30.37;;;;;;;;;;5071892;28;20473;-57
2021/12/09 07:36:23;;;;;;;56.90;30.07;;;;;;;;;;5071926;28;20434;-57
2021/12/09 07:38:49;;;;;;;52.90;29.60;;;;;;;;;;5071934;28;20444;-57
2021/12/09 07:41:17;;;;;;;52.60;29.57;;;;;;;;;;5071817;28;20207;-57
2021/12/09 07:43:45;;;;;;;55.27;30.20;;;;;;;;;;5071988;28;20837;-57
2021/12/09 07:46:12;;;;;;;49.50;28.07;;;;;;;;;;5071636;28;20437;-57
2021/12/09 07:48:38;;;;;;;52.53;29.93;;;;;;;;;;5071629;28;20442;-58
2021/12/09 07:51:04;;;;;;;54.73;30.30;;;;;;;;;;5071733;28;20448;-57
2021/12/09 07:53:30;;;;;;;60.67;29.60;;;;;;;;;;5071539;28;20489;-58
2021/12/09 07:55:56;;;;;;;56.10;30.07;;;;;;;;;;5071722;28;20245;-58
2021/12/09 07:58:23;;;;;;;58.73;29.60;;;;;;;;;;5071574;28;20210;-58
2021/12/09 08:00:49;;;;;;;47.20;28.40;;;;;;;;;;5071539;28;20473;-57
2021/12/09 08:03:16;;;;;;;93.03;31.10;;;;;;;;;;5071502;28;20841;-56
2021/12/09 08:05:44;;;;;;;57.17;30.30;;;;;;;;;;5071623;28;20464;-59
2021/12/09 08:08:11;;;;;;;60.57;30.67;;;;;;;;;;5071490;28;20448;-60
2021/12/09 08:10:37;;;;;;;57.53;30.83;;;;;;;;;;5071529;28;20442;-57
2021/12/09 08:13:03;;;;;;;51.73;30.07;;;;;;;;;;5068430;28;20861;-56
2021/12/09 08:15:32;;;;;;;53.20;29.83;;;;;;;;;;5072307;28;20434;-56
2021/12/09 08:18:02;;;;;;;57.27;30.67;;;;;;;;;;5074974;28;20536;-57
2021/12/09 08:20:30;;;;;;;54.17;30.60;;;;;;;;;;5075358;28;20430;-57
2021/12/09 08:22:56;;;;;;;52.13;28.67;;;;;;;;;;5075286;28;20442;-56
2021/12/09 08:25:23;;;;;;;54.33;28.93;;;;;;;;;;5075030;28;20505;-56
2021/12/09 08:27:49;;;;;;;56.53;29.97;;;;;;;;;;5075289;28;20491;-57
2021/12/09 08:30:17;;;;;;;51.60;29.13;;;;;;;;;;5075155;28;20446;-57
2021/12/09 08:32:43;;;;;;;56.53;28.57;;;;;;;;;;5075363;28;20571;-57
2021/12/09 08:35:09;;;;;;;50.07;28.10;;;;;;;;;;5075095;28;20524;-57
2021/12/09 08:37:36;;;;;;;52.17;28.53;;;;;;;;;;5074721;28;20525;-56
2021/12/09 08:40:04;;;;;;;58.23;29.60;;;;;;;;;;5075058;28;20516;-57
2021/12/09 08:42:30;;;;;;;50.53;28.83;;;;;;;;;;5074752;28;20426;-56
2021/12/09 08:44:56;;;;;;;48.77;27.80;;;;;;;;;;5075056;28;20505;-56
2021/12/09 08:47:22;;;;;;;56.60;28.60;;;;;;;;;;5074473;28;20484;-56
2021/12/09 08:49:48;;;;;;;56.70;28.83;;;;;;;;;;5074828;28;20911;-57
2021/12/09 08:52:15;;;;;;;66.90;30.53;;;;;;;;;;5074779;28;20595;-56
2021/12/09 08:54:42;;;;;;;69.83;30.20;;;;;;;;;;5074690;28;20445;-55
2021/12/09 08:57:10;;;;;;;56.57;31.40;;;;;;;;;;5074686;28;20429;-56
2021/12/09 08:59:36;;;;;;;81.70;31.60;;;;;;;;;;5074420;28;20440;-56
2021/12/09 09:02:03;;;;;;;61.60;30.93;;;;;;;;;;5074598;28;20430;-56
2021/12/09 09:04:29;;;;;;;63.13;30.10;;;;;;;;;;5074418;28;20847;-56
2021/12/09 09:06:56;;;;;;;146.13;32.70;;;;;;;;;;5074808;28;20489;-56
2021/12/09 09:09:24;;;;;;;65.07;34.30;;;;;;;;;;5074598;28;20430;-56
2021/12/09 09:11:51;;;;;;;65.30;32.17;;;;;;;;;;5074498;28;20803;-57
2021/12/09 09:14:17;;;;;;;64.40;30.37;;;;;;;;;;5074295;28;20452;-57
2021/12/09 09:16:43;;;;;;;77.53;32.03;;;;;;;;;;5074328;28;20438;-57
2021/12/09 09:19:10;;;;;;;56.17;30.20;;;;;;;;;;5074187;28;20275;-57
2021/12/09 09:21:36;;;;;;;67.37;31.17;;;;;;;;;;5074083;28;20810;-56
2021/12/09 09:24:03;;;;;;;56.90;32.13;;;;;;;;;;5071480;28;20838;-57
2021/12/09 09:26:30;;;;;;;62.83;32.13;;;;;;;;;;5074003;28;20438;-53
2021/12/09 09:28:58;;;;;;;102.93;33.97;;;;;;;;;;5074250;28;20433;-55
2021/12/09 09:31:27;;;;;;;90.60;33.93;;;;;;;;;;5073940;28;20954;-55
2021/12/09 09:33:53;;;;;;;67.30;33.37;;;;;;;;;;5074162;28;20473;-56
2021/12/09 09:36:19;;;;;;;70.53;32.90;;;;;;;;;;5073636;28;20426;-55
2021/12/09 09:38:45;;;;;;;67.17;32.30;;;;;;;;;;5074097;28;20449;-55
2021/12/09 09:41:15;;;;;;;70.83;34.77;;;;;;;;;;5074006;28;20434;-54
2021/12/09 09:46:14;;;;;;;72.07;32.67;;;;;;;;;;5074047;28;20430;-55
2021/12/09 09:48:40;;;;;;;63.87;30.97;;;;;;;;;;5073660;28;20462;-54
2021/12/09 09:51:10;;;;;;;62.10;31.90;;;;;;;;;;5073739;28;20855;-55
2021/12/09 09:53:37;;;;;;;64.13;31.67;;;;;;;;;;5073495;28;20481;-55
2021/12/09 09:56:08;;;;;;;64.83;30.40;;;;;;;;;;5073552;28;20533;-55
2021/12/09 09:58:34;;;;;;;55.60;31.03;;;;;;;;;;5073454;28;21022;-55
2021/12/09 10:01:01;;;;;;;59.50;31.87;;;;;;;;;;5073613;28;20532;-55
2021/12/09 10:03:30;;;;;;;100.67;32.50;;;;;;;;;;5073358;28;20438;-54
2021/12/09 10:05:58;;;;;;;60.60;32.33;;;;;;;;;;5073527;28;20465;-55
2021/12/09 10:08:24;;;;;;;58.00;30.67;;;;;;;;;;5073646;28;20872;-55
2021/12/09 10:10:50;;;;;;;76.50;32.73;;;;;;;;;;5073402;28;21005;-54
2021/12/09 10:13:18;;;;;;;59.80;32.23;;;;;;;;;;5073224;28;21007;-55
2021/12/09 10:15:46;;;;;;;57.13;30.43;;;;;;;;;;5073561;28;20466;-55
2021/12/09 10:18:13;;;;;;;55.30;29.50;;;;;;;;;;5073238;28;20434;-55
2021/12/09 10:20:45;;;;;;;54.40;31.80;;;;;;;;;;5073102;28;21209;-55
2021/12/09 10:23:22;;;;;;;58.97;30.27;;;;;;;;;;5073244;28;20544;-57
2021/12/09 10:26:09;;;;;;;64.63;30.43;;;;;;;;;;5073292;28;20432;-58
2021/12/09 10:28:35;;;;;;;53.17;29.70;;;;;;;;;;5073030;28;20503;-56
2021/12/09 10:31:09;;;;;;;58.60;31.33;;;;;;;;;;5073053;28;20442;-55
2021/12/09 10:33:57;;;;;;;62.17;31.40;;;;;;;;;;5068810;28;20556;-56
2021/12/09 10:39:22;;;;;;;55.23;28.97;;;;;;;;;;5089049;27;20567;-58
2021/12/09 10:41:48;;;;;;;56.57;31.43;;;;;;;;;;5089224;28;20452;-60
2021/12/09 10:44:14;;;;;;;61.10;32.03;;;;;;;;;;5089561;28;20437;-58
2021/12/09 10:46:51;;;;;;;62.10;30.33;;;;;;;;;;5089478;28;20441;-60
2021/12/09 10:49:18;;;;;;;52.50;30.20;;;;;;;;;;5089383;28;20474;-59
2021/12/09 10:51:55;;;;;;;52.77;29.63;;;;;;;;;;5089188;28;20437;-59
2021/12/09 10:54:32;;;;;;;55.03;29.87;;;;;;;;;;5089344;28;20528;-60
2021/12/09 10:57:18;;;;;;;51.33;28.63;;;;;;;;;;5089351;28;20460;-59
2021/12/09 10:59:44;;;;;;;53.77;28.67;;;;;;;;;;5089195;28;20433;-59
2021/12/09 11:02:11;;;;;;;56.27;29.60;;;;;;;;;;5089167;28;20444;-59
2021/12/09 11:04:37;;;;;;;57.03;29.17;;;;;;;;;;5088884;28;20433;-58
2021/12/09 11:07:18;;;;;;;49.87;27.17;;;;;;;;;;5089073;28;20503;-58
2021/12/09 11:09:45;;;;;;;48.63;28.03;;;;;;;;;;5088927;28;20672;-59
2021/12/09 11:12:26;;;;;;;41.83;25.80;;;;;;;;;;5088858;28;20441;-59
2021/12/09 11:14:58;;;;;;;43.63;26.23;;;;;;;;;;5088769;28;20438;-59
2021/12/09 11:17:33;;;;;;;45.87;26.33;;;;;;;;;;5088472;28;20522;-59
2021/12/09 11:19:59;;;;;;;41.80;25.47;;;;;;;;;;5088974;28;20429;-59
2021/12/09 11:22:30;;;;;;;42.67;24.93;;;;;;;;;;5088777;28;20429;-59
2021/12/09 11:25:02;;;;;;;46.97;26.80;;;;;;;;;;5088847;28;20194;-59
2021/12/09 11:27:30;;;;;;;43.33;26.77;;;;;;;;;;5088313;28;20841;-59
2021/12/09 11:30:08;;;;;;;36.87;24.13;;;;;;;;;;5088504;28;20433;-58
2021/12/09 11:35:12;;;;;;;38.53;23.57;;;;;;;;;;5088568;28;20469;-59
2021/12/09 11:37:47;;;;;;;37.43;23.87;;;;;;;;;;5087850;28;20579;-59
2021/12/09 11:40:20;;;;;;;40.50;24.20;;;;;;;;;;5088172;28;20436;-59
2021/12/09 11:42:55;;;;;;;37.77;23.23;;;;;;;;;;5088266;28;20851;-59
2021/12/09 11:45:23;;;;;;;39.37;23.50;;;;;;;;;;5088273;28;20441;-59
2021/12/09 11:47:50;;;;;;;35.23;22.87;;;;;;;;;;5087913;28;20900;-58
2021/12/09 11:50:19;;;;;;;32.77;22.30;;;;;;;;;;5076806;28;20942;-60
2021/12/09 11:52:46;;;;;;;30.20;20.83;;;;;;;;;;5074756;28;20935;-60
2021/12/09 11:55:14;;;;;;;31.53;21.20;;;;;;;;;;5073361;28;20524;-59
2021/12/09 11:57:47;;;;;;;32.67;21.67;;;;;;;;;;5074406;28;20838;-59
2021/12/09 12:11:48;;;;;;;29.87;19.77;;;;;;;;;;5074183;28;20861;-59
2021/12/09 12:14:31;;;;;;;30.43;20.13;;;;;;;;;;5072214;28;20429;-60
2021/12/09 12:17:10;;;;;;;29.10;18.13;;;;;;;;;;5071559;28;20204;-60
2021/12/09 12:20:22;;;;;;;27.23;18.27;;;;;;;;;;5073457;28;20438;-59
2021/12/09 12:28:27;;;;;;;23.27;16.43;;;;;;;;;;5073595;28;20436;-62
2021/12/09 12:34:12;;;;;;;23.97;17.53;;;;;;;;;;5073389;28;20434;-61
2021/12/09 12:39:34;;;;;;;25.87;18.20;;;;;;;;;;5073542;28;20525;-60
2021/12/09 12:42:03;;;;;;;26.93;19.33;;;;;;;;;;5073602;28;20461;-59
2021/12/09 12:44:30;;;;;;;28.97;20.07;;;;;;;;;;5073340;28;20940;-61
2021/12/09 12:47:08;;;;;;;30.70;20.37;;;;;;;;;;5073256;28;20426;-60
2021/12/09 12:49:36;;;;;;;29.63;19.67;;;;;;;;;;5073216;28;20437;-61
2021/12/09 12:52:09;;;;;;;26.93;19.73;;;;;;;;;;5073196;28;20444;-59
2021/12/09 12:57:13;;;;;;;28.10;19.90;;;;;;;;;;5073001;28;20840;-60
2021/12/09 12:59:41;;;;;;;27.10;19.27;;;;;;;;;;5073329;28;20444;-60
2021/12/09 13:05:07;;;;;;;25.93;18.63;;;;;;;;;;5061492;28;20553;-61
2021/12/09 13:08:03;;;;;;;25.70;18.87;;;;;;;;;;5072642;28;20442;-58
2021/12/09 13:16:02;;;;;;;28.57;19.37;;;;;;;;;;5072851;28;20421;-60
2021/12/09 13:18:58;;;;;;;28.00;19.37;;;;;;;;;;5072426;28;20476;-60
2021/12/09 13:21:48;;;;;;;27.17;18.73;;;;;;;;;;5072480;28;20437;-64
2021/12/09 13:24:39;;;;;;;26.73;19.43;;;;;;;;;;5072782;28;20486;-61
2021/12/09 13:27:36;;;;;;;26.57;18.63;;;;;;;;;;5072526;28;20997;-61
2021/12/09 13:33:01;;;;;;;26.97;18.73;;;;;;;;;;5072292;28;20430;-61
2021/12/09 13:46:28;;;;;;;27.67;18.93;;;;;;;;;;5061389;28;20500;-62
2021/12/09 13:48:57;;;;;;;27.07;18.63;;;;;;;;;;5072168;28;20560;-61
2021/12/09 13:51:50;;;;;;;26.67;19.10;;;;;;;;;;5071826;28;20430;-61
2021/12/09 13:54:26;;;;;;;29.57;19.30;;;;;;;;;;5071867;28;20442;-63
2021/12/09 13:56:57;;;;;;;32.37;19.70;;;;;;;;;;5071957;28;20526;-62
2021/12/09 13:59:24;;;;;;;28.07;19.07;;;;;;;;;;5071738;28;20535;-61
2021/12/09 14:01:51;;;;;;;29.93;19.47;;;;;;;;;;5071622;28;20831;-61
2021/12/09 14:04:21;;;;;;;28.60;20.57;;;;;;;;;;5071978;28;20434;-61
2021/12/09 14:06:53;;;;;;;30.30;20.80;;;;;;;;;;5071842;28;20963;-61
2021/12/09 14:09:19;;;;;;;34.00;20.70;;;;;;;;;;5070383;28;20963;-58
2021/12/09 14:11:49;;;;;;;29.43;19.33;;;;;;;;;;5071783;28;20521;-59
2021/12/09 14:14:24;;;;;;;32.20;21.27;;;;;;;;;;5071738;28;20524;-58
2021/12/09 14:16:55;;;;;;;31.23;20.53;;;;;;;;;;5071631;28;20801;-59
2021/12/09 14:21:49;;;;;;;31.57;20.27;;;;;;;;;;5071520;28;20431;-57
2021/12/09 14:24:17;;;;;;;29.97;21.13;;;;;;;;;;5071709;28;20491;-58
2021/12/09 14:26:44;;;;;;;33.40;22.00;;;;;;;;;;5069251;28;20442;-59
2021/12/09 14:29:10;;;;;;;29.17;19.63;;;;;;;;;;5070088;28;20522;-58
2021/12/09 14:31:45;;;;;;;30.33;19.60;;;;;;;;;;5070568;28;20963;-59
2021/12/09 14:34:11;;;;;;;28.43;19.43;;;;;;;;;;5071093;28;20495;-58
2021/12/09 14:36:38;;;;;;;30.27;18.97;;;;;;;;;;5070835;28;20445;-57
2021/12/09 14:39:06;;;;;;;27.03;18.23;;;;;;;;;;5070845;28;21016;-58
2021/12/09 14:41:32;;;;;;;26.23;19.37;;;;;;;;;;5071456;28;20532;-58
2021/12/09 14:43:58;;;;;;;29.13;19.57;;;;;;;;;;5071232;28;20464;-58
2021/12/09 14:46:27;;;;;;;32.23;19.70;;;;;;;;;;5070777;28;20433;-58
2021/12/09 14:48:55;;;;;;;24.20;17.63;;;;;;;;;;5070956;28;20979;-58
2021/12/09 14:51:22;;;;;;;26.03;17.53;;;;;;;;;;5070880;28;20466;-58
2021/12/09 14:53:49;;;;;;;28.20;18.57;;;;;;;;;;5070950;28;20455;-60
2021/12/09 14:56:20;;;;;;;24.00;17.63;;;;;;;;;;5071085;28;20480;-58
2021/12/09 14:58:46;;;;;;;29.97;18.03;;;;;;;;;;5070929;28;20485;-58
2021/12/09 15:01:19;;;;;;;30.80;18.67;;;;;;;;;;5071034;28;20461;-58
2021/12/09 15:03:59;;;;;;;26.47;17.90;;;;;;;;;;5071019;28;20441;-57
2021/12/09 15:06:29;;;;;;;26.53;17.87;;;;;;;;;;5070691;28;20441;-58
2021/12/09 15:09:13;;;;;;;29.50;18.53;;;;;;;;;;5070847;28;20495;-58
2021/12/09 15:11:40;;;;;;;25.13;17.97;;;;;;;;;;5070826;28;20835;-58
2021/12/09 15:14:14;;;;;;;29.20;18.30;;;;;;;;;;5070821;28;20528;-58
2021/12/09 15:16:40;;;;;;;25.87;17.97;;;;;;;;;;5070621;28;20461;-58
2021/12/09 15:19:15;;;;;;;25.90;18.23;;;;;;;;;;5070601;28;21060;-58
2021/12/09 15:21:42;;;;;;;26.77;18.47;;;;;;;;;;5070602;28;20209;-59
2021/12/09 15:24:11;;;;;;;23.80;16.40;;;;;;;;;;5071486;28;20477;-58
2021/12/09 15:26:39;;;;;;;27.80;16.97;;;;;;;;;;5074619;28;20437;-57